Time;durP1;ratioP1;P1;durP2;ratioP2;P2;SDS_P1;SDS_P2;PMS_P1;PMS_P2;Temp;Humidity;BMP_temperature;BMP_pressure;BME280_temperature;BME280_humidity;BME280_pressure;Samples;Min_cycle;Max_cycle;Signal;HPM_P1;HPM_P2
2022/05/05 00:00:16;;;;;;;8.60;7.80;;;12.50;99.90;;;;;;4995100;28;20213;-39
2022/05/05 00:02:42;;;;;;;11.43;8.00;;;12.50;99.90;;;;;;5012795;28;20248;-39
2022/05/05 00:05:08;;;;;;;9.17;8.27;;;12.50;99.90;;;;;;4995465;28;20265;-42
2022/05/05 00:07:34;;;;;;;9.93;7.60;;;12.50;99.90;;;;;;4979316;28;20185;-41
2022/05/05 00:14:23;;;;;;;7.90;7.17;;;12.40;99.90;;;;;;4979197;28;20208;-40
2022/05/05 00:15:30;;;;;;;8.87;7.97;;;12.30;99.90;;;;;;4994894;28;20190;-41
2022/05/05 00:17:56;;;;;;;9.43;8.10;;;12.30;99.90;;;;;;4995423;28;20183;-41
2022/05/05 00:20:22;;;;;;;8.57;7.77;;;12.20;99.90;;;;;;4978980;28;20204;-41
2022/05/05 00:22:48;;;;;;;8.10;7.40;;;12.10;99.90;;;;;;4978666;28;20192;-41
2022/05/05 00:25:13;;;;;;;9.23;8.30;;;12.20;99.90;;;;;;4995126;28;20598;-41
2022/05/05 00:27:39;;;;;;;12.20;9.90;;;12.20;99.90;;;;;;4978855;28;20172;-40
2022/05/05 00:30:06;;;;;;;11.00;9.43;;;12.20;99.90;;;;;;4994425;28;20198;-42
2022/05/05 00:32:32;;;;;;;10.93;8.63;;;12.10;99.90;;;;;;4995009;28;20200;-41
2022/05/05 00:34:57;;;;;;;10.10;8.93;;;12.20;99.90;;;;;;5011291;28;20692;-41
2022/05/05 00:37:23;;;;;;;7.87;7.17;;;12.10;99.90;;;;;;4978166;28;20177;-41
2022/05/05 00:39:49;;;;;;;9.97;7.63;;;12.10;99.90;;;;;;4974281;28;20201;-43
2022/05/05 00:42:16;;;;;;;9.33;8.33;;;12.10;99.90;;;;;;4978190;28;20299;-40
2022/05/05 00:44:41;;;;;;;10.07;8.10;;;12.10;99.90;;;;;;4994554;28;20189;-40
2022/05/05 00:47:07;;;;;;;10.60;7.43;;;12.10;99.90;;;;;;4994936;28;20210;-40
2022/05/05 00:49:33;;;;;;;8.27;7.47;;;12.10;99.90;;;;;;4994514;28;20208;-40
2022/05/05 00:51:59;;;;;;;8.70;7.80;;;12.10;99.90;;;;;;4994555;28;20189;-40
2022/05/05 00:54:26;;;;;;;8.47;7.67;;;12.10;99.90;;;;;;4994386;28;20208;-40
2022/05/05 00:56:52;;;;;;;8.73;7.93;;;12.10;99.90;;;;;;4994597;28;20180;-38
2022/05/05 00:59:20;;;;;;;8.83;7.90;;;12.10;99.90;;;;;;5011193;28;20184;-40
2022/05/05 01:01:46;;;;;;;8.80;8.00;;;12.10;99.90;;;;;;4994273;28;20208;-38
2022/05/05 01:04:12;;;;;;;9.07;8.17;;;12.10;99.90;;;;;;4994488;28;20191;-40
2022/05/05 01:06:38;;;;;;;9.63;8.63;;;12.10;99.90;;;;;;4994164;28;20188;-41
2022/05/05 01:09:05;;;;;;;9.07;8.17;;;12.10;99.90;;;;;;5010581;28;20183;-41
2022/05/05 01:11:31;;;;;;;9.43;8.43;;;12.10;99.90;;;;;;4994326;28;20184;-42
2022/05/05 01:13:57;;;;;;;9.77;8.30;;;12.10;99.90;;;;;;5010542;28;20280;-40
2022/05/05 01:16:23;;;;;;;9.67;8.67;;;12.10;99.90;;;;;;4978001;28;20187;-42
2022/05/05 01:18:51;;;;;;;11.83;9.53;;;12.00;99.90;;;;;;4977870;28;20182;-42
2022/05/05 01:21:20;;;;;;;11.10;8.93;;;12.10;99.90;;;;;;4977819;28;20197;-40
2022/05/05 01:23:46;;;;;;;9.70;8.67;;;12.00;99.90;;;;;;4978147;28;20186;-40
2022/05/05 01:28:57;;;;;;;9.30;8.30;;;12.10;99.90;;;;;;5011519;28;20244;-42
2022/05/05 01:31:23;;;;;;;11.10;8.43;;;12.00;99.90;;;;;;5011524;28;20224;-41
2022/05/05 01:33:49;;;;;;;11.63;8.20;;;12.00;99.90;;;;;;5011672;28;20211;-41
2022/05/05 01:36:15;;;;;;;8.67;7.87;;;12.00;99.90;;;;;;4994020;28;20180;-41
2022/05/05 01:38:43;;;;;;;8.70;7.80;;;12.00;99.90;;;;;;5011306;28;20181;-41
2022/05/05 01:41:10;;;;;;;8.97;7.80;;;12.10;99.90;;;;;;5009948;28;20211;-40
2022/05/05 01:43:38;;;;;;;9.27;8.27;;;12.10;99.90;;;;;;4993781;28;20184;-40
2022/05/05 01:46:04;;;;;;;9.57;8.57;;;12.10;99.90;;;;;;5011335;28;20180;-39
2022/05/05 01:48:31;;;;;;;9.87;8.43;;;11.90;99.90;;;;;;4993754;28;20276;-42
2022/05/05 01:50:57;;;;;;;8.77;7.93;;;11.80;99.90;;;;;;4992750;28;20208;-40
2022/05/05 01:53:23;;;;;;;9.43;8.53;;;11.80;99.90;;;;;;4993260;28;20220;-40
2022/05/05 01:55:49;;;;;;;9.07;8.17;;;11.80;99.90;;;;;;4977638;28;20297;-41
2022/05/05 01:58:16;;;;;;;11.37;8.77;;;11.80;99.90;;;;;;4993660;28;20172;-42
2022/05/05 02:00:41;;;;;;;9.27;8.37;;;11.70;99.90;;;;;;4980365;28;20232;-41
2022/05/05 02:03:12;;;;;;;9.20;8.30;;;11.80;99.90;;;;;;4974063;28;20227;-40
2022/05/05 02:05:40;;;;;;;10.23;7.90;;;11.80;99.90;;;;;;4973998;28;20188;-41
2022/05/05 02:08:06;;;;;;;9.87;8.87;;;11.80;99.90;;;;;;4973593;28;20196;-40
2022/05/05 02:10:32;;;;;;;10.50;9.10;;;11.70;99.90;;;;;;4973881;28;20204;-41
2022/05/05 02:12:58;;;;;;;9.97;8.97;;;11.70;99.90;;;;;;4973886;28;20191;-40
2022/05/05 02:15:24;;;;;;;9.67;8.70;;;11.80;99.90;;;;;;4957791;28;20271;-41
2022/05/05 02:17:51;;;;;;;10.20;8.57;;;11.80;99.90;;;;;;4974096;28;20634;-39
2022/05/05 02:20:17;;;;;;;9.77;8.67;;;11.70;99.90;;;;;;4989366;28;20639;-42
2022/05/05 02:22:42;;;;;;;10.87;9.33;;;11.60;99.90;;;;;;4973952;28;20176;-39
2022/05/05 02:25:09;;;;;;;10.33;9.33;;;11.50;99.90;;;;;;4973792;28;20184;-40
2022/05/05 02:27:45;;;;;;;10.23;9.10;;;11.40;99.90;;;;;;4973775;28;20180;-40
2022/05/05 02:30:11;;;;;;;10.13;9.13;;;11.40;99.90;;;;;;4973620;28;20315;-39
2022/05/05 02:32:37;;;;;;;9.07;8.20;;;11.30;99.90;;;;;;4974163;28;20176;-40
2022/05/05 02:35:03;;;;;;;9.97;8.93;;;11.30;99.90;;;;;;4973568;28;20227;-40
2022/05/05 02:40:13;;;;;;;10.63;9.20;;;11.20;99.90;;;;;;4989715;28;20215;-41
2022/05/05 02:42:39;;;;;;;10.17;9.10;;;11.20;99.90;;;;;;4973665;28;20176;-41
2022/05/05 02:45:05;;;;;;;10.73;9.73;;;11.20;99.90;;;;;;4973635;28;20187;-40
2022/05/05 02:47:30;;;;;;;9.37;8.47;;;11.20;99.90;;;;;;4973529;28;20231;-40
2022/05/05 02:49:56;;;;;;;9.57;8.67;;;11.20;99.90;;;;;;4990814;28;20207;-40
2022/05/05 02:52:22;;;;;;;10.67;8.97;;;11.30;99.90;;;;;;4973752;28;20227;-40
2022/05/05 02:54:50;;;;;;;8.60;7.80;;;11.30;99.90;;;;;;4989957;28;20220;-40
2022/05/05 02:57:23;;;;;;;10.37;8.00;;;11.30;99.90;;;;;;4973730;28;20207;-41
2022/05/05 02:59:49;;;;;;;8.77;7.93;;;11.30;99.90;;;;;;4995248;28;20247;-41
2022/05/05 03:02:17;;;;;;;8.80;7.90;;;11.30;99.90;;;;;;5011892;28;20214;-41
2022/05/05 03:04:42;;;;;;;8.93;8.13;;;11.30;99.90;;;;;;4996722;28;20206;-41
2022/05/05 03:07:09;;;;;;;8.87;8.07;;;11.30;99.90;;;;;;4980669;28;20691;-40
2022/05/05 03:09:35;;;;;;;10.67;9.13;;;11.40;99.90;;;;;;4996152;28;20306;-38
2022/05/05 03:12:01;;;;;;;9.43;8.43;;;11.40;99.90;;;;;;4980297;28;20274;-40
2022/05/05 03:14:26;;;;;;;9.83;7.97;;;11.40;99.90;;;;;;4996486;28;20211;-40
2022/05/05 03:16:52;;;;;;;9.23;8.20;;;11.40;99.90;;;;;;4996409;28;20206;-41
2022/05/05 03:19:18;;;;;;;9.73;8.43;;;11.40;99.90;;;;;;4996212;28;20198;-41
2022/05/05 03:21:44;;;;;;;9.47;8.57;;;11.50;99.90;;;;;;4996095;28;20283;-42
2022/05/05 03:24:10;;;;;;;9.10;8.27;;;11.50;99.90;;;;;;4996049;28;20253;-41
2022/05/05 03:26:36;;;;;;;9.50;8.60;;;11.50;99.90;;;;;;5013831;28;20216;-41
2022/05/05 03:29:04;;;;;;;9.60;8.60;;;11.50;99.90;;;;;;4979617;28;20188;-41
2022/05/05 03:31:31;;;;;;;8.80;8.00;;;11.50;99.90;;;;;;4996150;28;20299;-40
2022/05/05 03:33:57;;;;;;;9.03;8.20;;;11.60;99.90;;;;;;4995991;28;20247;-39
2022/05/05 03:36:23;;;;;;;8.80;7.90;;;11.60;99.90;;;;;;4979864;28;20219;-39
2022/05/05 03:38:50;;;;;;;8.90;8.00;;;11.50;99.90;;;;;;4979593;28;20180;-41
2022/05/05 03:41:16;;;;;;;8.77;7.87;;;11.50;99.90;;;;;;4995851;28;20222;-38
2022/05/05 03:43:42;;;;;;;8.53;7.73;;;11.50;99.90;;;;;;4994927;28;20276;-39
2022/05/05 03:46:08;;;;;;;8.10;7.37;;;11.50;99.90;;;;;;4995887;28;20273;-40
2022/05/05 03:48:34;;;;;;;8.10;7.30;;;11.50;99.90;;;;;;5011975;28;20189;-38
2022/05/05 03:51:00;;;;;;;8.33;7.50;;;11.40;99.90;;;;;;4995540;28;20253;-41
2022/05/05 03:53:25;;;;;;;8.37;7.47;;;11.40;99.90;;;;;;4979522;28;20322;-40
2022/05/05 03:55:51;;;;;;;8.80;7.80;;;11.40;99.90;;;;;;4995594;28;20209;-41
2022/05/05 03:58:17;;;;;;;8.90;8.10;;;11.30;99.90;;;;;;4995612;28;20651;-38
2022/05/05 04:00:43;;;;;;;9.20;8.30;;;11.30;99.90;;;;;;4979689;28;20298;-42
2022/05/05 04:05:53;;;;;;;8.60;7.80;;;11.30;99.90;;;;;;5000951;28;20218;-41
2022/05/05 04:08:19;;;;;;;9.00;8.10;;;11.20;99.90;;;;;;4979255;28;20206;-41
2022/05/05 04:10:44;;;;;;;9.10;8.20;;;11.30;99.90;;;;;;4978548;28;20297;-41
2022/05/05 04:13:10;;;;;;;8.53;7.73;;;11.30;99.90;;;;;;4978114;28;20230;-42
2022/05/05 04:15:36;;;;;;;8.83;7.93;;;11.30;99.90;;;;;;4979283;28;20179;-41
2022/05/05 04:18:02;;;;;;;9.03;7.73;;;11.40;99.90;;;;;;4978184;28;20254;-41
2022/05/05 04:20:28;;;;;;;9.30;8.40;;;11.40;99.90;;;;;;5013355;28;20187;-42
2022/05/05 04:22:55;;;;;;;8.93;7.87;;;11.40;99.90;;;;;;4995027;28;20242;-41
2022/05/05 04:25:21;;;;;;;8.60;7.80;;;11.30;99.90;;;;;;4978715;28;20666;-41
2022/05/05 04:27:47;;;;;;;9.30;7.83;;;11.30;99.90;;;;;;4995710;28;20183;-42
2022/05/05 04:30:16;;;;;;;9.67;7.80;;;11.40;99.90;;;;;;4994773;28;20204;-41
2022/05/05 04:32:45;;;;;;;9.30;8.30;;;11.40;99.90;;;;;;4994917;28;20530;-41
2022/05/05 04:35:11;;;;;;;9.00;8.03;;;11.30;99.90;;;;;;4994891;28;20190;-42
2022/05/05 04:37:39;;;;;;;9.50;8.00;;;11.30;99.90;;;;;;4994990;28;20179;-41
2022/05/05 04:40:05;;;;;;;9.57;8.63;;;11.30;99.90;;;;;;4994566;28;20199;-42
2022/05/05 04:42:31;;;;;;;9.83;8.30;;;11.30;99.90;;;;;;5011067;28;20183;-42
2022/05/05 04:44:57;;;;;;;9.10;8.30;;;11.30;99.90;;;;;;4978575;28;20202;-41
2022/05/05 04:47:23;;;;;;;9.23;8.30;;;11.30;99.90;;;;;;5010718;28;20175;-39
2022/05/05 04:49:49;;;;;;;10.53;9.50;;;11.30;99.90;;;;;;4978363;28;20203;-41
2022/05/05 04:52:15;;;;;;;9.97;8.90;;;11.30;99.90;;;;;;4994661;28;20205;-42
2022/05/05 04:54:41;;;;;;;9.40;8.50;;;11.30;99.90;;;;;;4978086;28;20206;-41
2022/05/05 04:57:07;;;;;;;9.00;8.10;;;11.30;99.90;;;;;;4978421;28;20207;-42
2022/05/05 04:59:33;;;;;;;10.10;8.87;;;11.30;99.90;;;;;;4978185;28;20394;-42
2022/05/05 05:01:59;;;;;;;9.63;8.73;;;11.20;99.90;;;;;;4978441;28;20272;-42
2022/05/05 05:04:25;;;;;;;10.87;9.80;;;11.20;99.90;;;;;;5011961;28;20282;-42
2022/05/05 05:06:51;;;;;;;10.37;9.27;;;11.10;99.90;;;;;;4994376;28;20210;-41
2022/05/05 05:09:16;;;;;;;12.23;9.23;;;11.10;99.90;;;;;;4977758;28;20187;-41
2022/05/05 05:11:42;;;;;;;10.97;9.90;;;11.10;99.90;;;;;;4994256;28;20167;-40
2022/05/05 05:14:08;;;;;;;10.97;9.80;;;11.00;99.90;;;;;;4995074;28;20226;-41
2022/05/05 05:16:34;;;;;;;11.50;10.30;;;11.00;99.90;;;;;;4994178;28;20305;-42
2022/05/05 05:19:01;;;;;;;10.97;9.87;;;11.10;99.90;;;;;;4993967;28;20202;-42
2022/05/05 05:21:27;;;;;;;10.73;9.63;;;11.10;99.90;;;;;;4993739;28;20215;-42
2022/05/05 05:23:53;;;;;;;10.80;9.70;;;11.20;99.90;;;;;;4978044;28;20195;-41
2022/05/05 05:26:18;;;;;;;10.07;9.17;;;11.30;99.90;;;;;;4995139;28;20256;-41
2022/05/05 05:28:44;;;;;;;10.97;9.47;;;11.40;99.90;;;;;;4978934;28;20553;-42
2022/05/05 05:31:10;;;;;;;11.70;9.83;;;11.60;99.90;;;;;;4977344;28;20210;-42
2022/05/05 05:33:36;;;;;;;17.73;15.47;;;11.60;99.90;;;;;;4977548;28;20230;-42
2022/05/05 05:36:02;;;;;;;12.77;11.47;;;11.70;99.90;;;;;;4993942;28;20200;-41
2022/05/05 05:38:28;;;;;;;11.67;8.63;;;11.80;99.90;;;;;;4977478;28;20179;-41
2022/05/05 05:40:56;;;;;;;10.80;8.50;;;12.00;99.90;;;;;;4993729;28;20244;-41
2022/05/05 05:43:24;;;;;;;10.27;9.27;;;12.10;99.90;;;;;;4993922;28;20195;-41
2022/05/05 05:45:50;;;;;;;10.00;9.10;;;12.20;99.90;;;;;;4977637;28;20186;-41
2022/05/05 05:48:15;;;;;;;10.30;9.30;;;12.30;99.90;;;;;;4993520;28;20188;-41
2022/05/05 05:50:41;;;;;;;10.93;9.83;;;12.30;99.90;;;;;;5011170;28;20193;-40
2022/05/05 05:53:08;;;;;;;10.20;9.20;;;12.30;99.90;;;;;;4993608;28;20689;-41
2022/05/05 05:55:35;;;;;;;9.50;8.60;;;12.30;99.90;;;;;;5010160;28;20331;-41
2022/05/05 05:58:01;;;;;;;9.50;8.40;;;12.30;99.90;;;;;;4993487;28;20179;-41
2022/05/05 06:00:28;;;;;;;9.97;8.47;;;12.30;99.90;;;;;;5010977;28;20231;-42
2022/05/05 06:05:38;;;;;;;9.60;8.60;;;12.30;99.90;;;;;;4993301;28;20180;-40
2022/05/05 06:08:04;;;;;;;9.87;8.87;;;12.40;99.90;;;;;;4977233;28;20181;-39
2022/05/05 06:10:31;;;;;;;8.60;7.80;;;12.50;99.90;;;;;;4976934;28;20200;-41
2022/05/05 06:12:57;;;;;;;11.80;10.47;;;12.60;99.90;;;;;;5009530;28;20220;-41
2022/05/05 06:15:23;;;;;;;9.90;8.90;;;12.60;99.90;;;;;;4977338;28;20320;-40
2022/05/05 06:17:50;;;;;;;9.90;8.93;;;12.70;99.90;;;;;;4977456;28;20197;-40
2022/05/05 06:20:16;;;;;;;9.27;8.23;;;12.70;99.90;;;;;;5011958;28;20189;-39
2022/05/05 06:22:42;;;;;;;9.93;8.93;;;12.80;99.90;;;;;;5009752;28;20187;-39
2022/05/05 06:25:13;;;;;;;10.10;9.03;;;12.80;99.90;;;;;;4977249;28;20208;-40
2022/05/05 06:27:40;;;;;;;9.47;8.57;;;12.80;99.90;;;;;;4993303;28;20187;-41
2022/05/05 06:30:09;;;;;;;10.20;9.13;;;12.90;99.90;;;;;;4976152;28;20266;-42
2022/05/05 06:32:35;;;;;;;10.00;9.10;;;12.90;99.90;;;;;;4992697;28;20189;-41
2022/05/05 06:35:01;;;;;;;9.10;8.20;;;12.80;99.90;;;;;;4976683;28;20226;-41
2022/05/05 06:37:26;;;;;;;9.00;8.10;;;12.80;99.90;;;;;;4996213;28;20193;-42
2022/05/05 06:39:52;;;;;;;10.30;9.17;;;12.80;99.90;;;;;;5014039;28;20188;-41
2022/05/05 06:42:18;;;;;;;9.97;8.97;;;12.80;99.90;;;;;;4980409;28;20205;-42
2022/05/05 06:44:44;;;;;;;9.03;8.13;;;12.80;99.90;;;;;;4980722;28;20183;-42
2022/05/05 06:47:11;;;;;;;11.37;8.60;;;12.80;99.90;;;;;;4996889;28;20250;-42
2022/05/05 06:49:37;;;;;;;9.23;8.33;;;12.90;99.90;;;;;;4980736;28;20264;-42
2022/05/05 06:52:03;;;;;;;8.73;7.93;;;13.00;99.90;;;;;;5015328;28;20249;-42
2022/05/05 06:54:29;;;;;;;10.57;8.63;;;13.00;99.90;;;;;;4998814;28;20210;-41
2022/05/05 06:56:56;;;;;;;9.50;8.60;;;13.10;99.90;;;;;;4997418;28;20240;-42
2022/05/05 06:59:22;;;;;;;9.63;8.67;;;13.10;99.90;;;;;;4996471;28;20575;-41
2022/05/05 07:02:02;;;;;;;9.40;8.43;;;13.20;99.90;;;;;;4996223;28;20199;-42
2022/05/05 07:07:14;;;;;;;10.23;9.17;;;13.40;99.90;;;;;;5013643;28;20186;-41
2022/05/05 07:12:29;;;;;;;9.07;8.13;;;13.40;99.90;;;;;;5014412;28;20175;-42
2022/05/05 07:14:56;;;;;;;9.20;8.30;;;13.40;99.90;;;;;;4980575;28;20214;-41
2022/05/05 07:17:23;;;;;;;9.80;8.53;;;13.40;99.90;;;;;;4995944;28;20179;-42
2022/05/05 07:19:50;;;;;;;9.93;9.00;;;13.40;99.90;;;;;;5013847;28;20206;-42
2022/05/05 07:22:16;;;;;;;10.33;9.33;;;13.40;99.90;;;;;;4996416;28;20171;-41
2022/05/05 07:24:41;;;;;;;9.57;8.67;;;13.40;99.90;;;;;;4979738;28;20224;-42
2022/05/05 07:27:07;;;;;;;10.27;8.70;;;13.40;99.90;;;;;;4979915;28;20215;-42
2022/05/05 07:29:34;;;;;;;9.07;8.17;;;13.30;99.90;;;;;;4979853;28;20215;-42
2022/05/05 07:32:00;;;;;;;9.70;8.77;;;13.30;99.90;;;;;;4977374;28;20196;-40
2022/05/05 07:34:26;;;;;;;9.03;8.23;;;13.20;99.90;;;;;;4975557;28;20218;-42
2022/05/05 07:36:52;;;;;;;9.90;8.90;;;13.30;99.90;;;;;;4994906;28;20203;-42
2022/05/05 07:39:17;;;;;;;13.60;9.87;;;13.40;99.90;;;;;;4995003;28;20222;-42
2022/05/05 07:41:44;;;;;;;10.73;9.60;;;13.40;99.90;;;;;;4978370;28;20193;-42
2022/05/05 07:44:10;;;;;;;9.70;8.80;;;13.50;99.90;;;;;;5002740;28;20180;-42
2022/05/05 07:46:38;;;;;;;9.10;8.20;;;13.50;99.90;;;;;;4978315;28;20187;-42
2022/05/05 07:49:06;;;;;;;9.70;8.80;;;13.50;99.90;;;;;;4979623;28;20187;-42
2022/05/05 07:51:33;;;;;;;11.73;9.00;;;13.60;99.90;;;;;;4991904;28;20218;-42
2022/05/05 07:56:45;;;;;;;9.40;8.30;;;13.60;99.90;;;;;;4991658;28;20273;-42
2022/05/05 07:59:11;;;;;;;9.37;8.40;;;13.60;99.90;;;;;;4978425;28;20227;-41
2022/05/05 08:01:37;;;;;;;9.50;8.60;;;13.60;99.90;;;;;;5004925;28;20199;-42
2022/05/05 08:04:04;;;;;;;8.83;7.87;;;13.70;99.90;;;;;;4978291;28;20183;-41
2022/05/05 08:06:31;;;;;;;9.87;8.83;;;13.70;99.90;;;;;;4975931;28;20187;-42
2022/05/05 08:08:57;;;;;;;10.00;9.00;;;13.80;99.90;;;;;;4975674;28;20274;-42
2022/05/05 08:11:23;;;;;;;8.77;7.87;;;13.80;99.90;;;;;;4993364;28;20330;-42
2022/05/05 08:13:49;;;;;;;9.77;8.70;;;14.00;99.90;;;;;;4975873;28;20223;-41
2022/05/05 08:16:16;;;;;;;10.17;9.17;;;14.00;99.90;;;;;;4977405;28;20207;-42
2022/05/05 08:18:42;;;;;;;10.47;9.37;;;14.10;99.90;;;;;;4994093;28;20172;-42
2022/05/05 08:21:11;;;;;;;11.23;9.10;;;14.10;99.90;;;;;;4974944;28;20204;-41
2022/05/05 08:23:38;;;;;;;11.07;10.07;;;14.20;99.90;;;;;;4991347;28;20184;-40
2022/05/05 08:28:49;;;;;;;10.07;9.03;;;14.30;99.90;;;;;;4992935;28;20187;-38
2022/05/05 08:31:15;;;;;;;10.07;9.17;;;14.30;99.90;;;;;;4994794;28;20262;-42
2022/05/05 08:33:42;;;;;;;10.30;9.20;;;14.40;99.90;;;;;;4994895;28;20576;-42
2022/05/05 08:36:08;;;;;;;10.97;9.77;;;14.40;99.90;;;;;;4978812;28;20195;-42
2022/05/05 08:38:35;;;;;;;10.07;9.07;;;14.50;99.90;;;;;;4994922;28;20175;-41
2022/05/05 08:41:02;;;;;;;9.90;8.73;;;14.40;99.90;;;;;;4978487;28;20206;-42
2022/05/05 08:43:28;;;;;;;10.77;8.80;;;14.40;99.90;;;;;;4994691;28;20563;-41
2022/05/05 08:45:58;;;;;;;9.80;8.83;;;14.20;99.90;;;;;;5012137;28;20206;-42
2022/05/05 08:48:24;;;;;;;10.83;9.00;;;14.30;99.90;;;;;;4978902;28;20183;-42
2022/05/05 08:50:55;;;;;;;10.27;9.17;;;14.30;99.90;;;;;;4994604;28;20211;-42
2022/05/05 08:53:29;;;;;;;11.73;9.53;;;14.30;99.90;;;;;;5012269;28;20199;-42
2022/05/05 08:55:55;;;;;;;9.73;8.77;;;14.30;99.90;;;;;;5010834;28;20179;-42
2022/05/05 08:58:22;;;;;;;10.57;8.87;;;14.20;99.90;;;;;;4978009;28;20176;-42
2022/05/05 09:00:52;;;;;;;10.20;8.73;;;14.20;99.90;;;;;;4977938;28;20218;-42
2022/05/05 09:03:19;;;;;;;10.30;9.30;;;14.30;99.90;;;;;;4977772;28;20671;-42
2022/05/05 09:05:44;;;;;;;9.30;8.40;;;14.30;99.90;;;;;;4994307;28;20187;-42
2022/05/05 09:08:25;;;;;;;9.50;8.53;;;14.20;99.90;;;;;;4994297;28;20186;-42
2022/05/05 09:10:54;;;;;;;10.00;9.00;;;14.30;99.90;;;;;;4977785;28;20202;-42
2022/05/05 09:13:27;;;;;;;11.20;10.00;;;14.40;99.90;;;;;;5011998;28;20203;-42
2022/05/05 09:15:53;;;;;;;10.97;9.80;;;14.40;99.90;;;;;;4978301;28;20523;-42
2022/05/05 09:18:28;;;;;;;10.07;9.07;;;14.40;99.90;;;;;;4994490;28;20194;-40
2022/05/05 09:20:56;;;;;;;11.20;10.13;;;14.40;99.90;;;;;;4994127;28;20424;-43
2022/05/05 09:23:33;;;;;;;9.97;9.00;;;14.40;99.90;;;;;;4993398;28;20338;-42
2022/05/05 09:26:01;;;;;;;11.40;10.10;;;14.40;99.90;;;;;;4978111;28;20191;-42
2022/05/05 09:28:32;;;;;;;9.77;8.57;;;14.40;99.90;;;;;;4993947;28;20238;-43
2022/05/05 09:31:07;;;;;;;11.57;10.37;;;14.40;99.90;;;;;;5011209;28;20214;-43
2022/05/05 09:33:42;;;;;;;11.03;9.87;;;14.30;99.90;;;;;;5011427;28;20210;-43
2022/05/05 09:36:13;;;;;;;9.77;8.77;;;14.30;99.90;;;;;;4993864;28;20185;-41
2022/05/05 09:38:50;;;;;;;10.50;9.50;;;14.30;99.90;;;;;;4977779;28;20186;-42
2022/05/05 09:41:17;;;;;;;10.30;9.20;;;14.20;99.90;;;;;;4977616;28;20198;-42
2022/05/05 09:43:43;;;;;;;10.73;9.73;;;14.20;99.90;;;;;;5011120;28;20195;-43
2022/05/05 09:46:27;;;;;;;11.00;9.77;;;14.20;99.90;;;;;;5011346;28;20164;-42
2022/05/05 09:49:11;;;;;;;11.23;10.13;;;14.10;99.90;;;;;;4976096;28;20555;-43
2022/05/05 09:51:45;;;;;;;11.67;10.57;;;14.10;99.90;;;;;;4990709;28;20183;-43
2022/05/05 09:59:50;;;;;;;11.03;9.90;;;14.00;99.90;;;;;;5010370;28;20638;-43
2022/05/05 10:04:54;;;;;;;11.07;10.00;;;14.00;99.90;;;;;;5027267;28;20226;-39
2022/05/05 10:07:21;;;;;;;11.37;10.17;;;14.00;99.90;;;;;;4996248;28;20178;-40
2022/05/05 10:09:49;;;;;;;12.83;10.80;;;14.00;99.90;;;;;;4990286;28;20311;-38
2022/05/05 10:12:17;;;;;;;11.37;10.17;;;14.10;99.90;;;;;;4984233;28;20257;-39
2022/05/05 10:14:43;;;;;;;12.30;11.00;;;14.10;99.90;;;;;;5007858;28;20211;-39
2022/05/05 10:17:11;;;;;;;12.80;10.80;;;14.10;99.90;;;;;;5008688;28;20229;-39
2022/05/05 10:19:38;;;;;;;12.80;11.20;;;14.10;99.90;;;;;;5009892;28;20246;-41
2022/05/05 10:22:12;;;;;;;13.10;11.70;;;14.10;99.90;;;;;;4993346;28;20199;-39
2022/05/05 10:24:54;;;;;;;12.90;11.70;;;14.20;99.90;;;;;;4993430;28;20182;-36
2022/05/05 10:27:20;;;;;;;13.17;11.87;;;14.20;99.90;;;;;;5009824;28;20183;-38
2022/05/05 10:29:46;;;;;;;13.20;11.80;;;14.20;99.90;;;;;;5009627;28;20218;-39
2022/05/05 10:32:19;;;;;;;11.23;10.10;;;14.30;99.90;;;;;;4993173;28;20313;-36
2022/05/05 10:34:54;;;;;;;13.00;11.70;;;14.30;99.90;;;;;;4993322;28;20211;-42
2022/05/05 10:37:36;;;;;;;10.90;9.90;;;14.40;99.90;;;;;;4977049;28;20591;-41
2022/05/05 10:40:09;;;;;;;11.07;9.97;;;14.50;99.90;;;;;;4976885;28;20187;-41
2022/05/05 10:42:44;;;;;;;11.33;10.17;;;14.60;99.90;;;;;;4993061;28;20246;-40
2022/05/05 10:45:13;;;;;;;12.00;10.70;;;14.70;99.90;;;;;;4993408;28;20183;-41
2022/05/05 10:50:30;;;;;;;11.73;10.63;;;14.90;99.90;;;;;;4994364;28;20191;-45
2022/05/05 10:52:57;;;;;;;11.50;10.40;;;15.10;99.90;;;;;;4977536;28;20267;-41
2022/05/05 10:55:40;;;;;;;11.40;10.17;;;15.20;99.90;;;;;;4992867;28;20215;-40
2022/05/05 10:58:09;;;;;;;12.67;11.37;;;15.30;99.90;;;;;;4993457;28;20211;-39
2022/05/05 11:00:43;;;;;;;13.37;12.07;;;15.40;99.90;;;;;;4976505;28;20192;-42
2022/05/05 11:03:09;;;;;;;13.80;12.40;;;15.60;99.90;;;;;;4976793;28;20643;-41
2022/05/05 11:05:38;;;;;;;11.47;10.40;;;15.60;99.90;;;;;;4976628;28;20179;-41
2022/05/05 11:08:10;;;;;;;13.87;11.73;;;15.90;99.90;;;;;;5010476;28;20195;-45
2022/05/05 11:13:46;;;;;;;13.57;12.17;;;16.30;99.90;;;;;;4991959;28;20304;-39
2022/05/05 11:22:08;;;;;;;13.13;11.93;;;16.50;99.90;;;;;;5008982;28;20222;-41
2022/05/05 11:24:35;;;;;;;13.00;11.55;;;16.70;99.90;;;;;;4996028;28;20189;-40
2022/05/05 11:27:04;;;;;;;11.50;10.30;;;16.80;99.90;;;;;;5011783;28;20184;-42
2022/05/05 11:29:33;;;;;;;11.48;10.30;;;17.00;99.90;;;;;;5008246;28;20188;-43
2022/05/05 11:32:05;;;;;;;14.38;12.80;;;17.10;99.90;;;;;;4990896;28;20203;-38
2022/05/05 11:34:41;;;;;;;15.18;13.73;;;16.80;99.90;;;;;;5010814;28;20233;-40
2022/05/05 11:37:09;;;;;;;14.82;13.43;;;16.60;99.90;;;;;;4993516;28;20177;-38
2022/05/05 11:39:36;;;;;;;13.70;12.30;;;16.90;99.90;;;;;;4994943;28;20274;-42
2022/05/05 11:42:07;;;;;;;15.43;12.40;;;17.30;99.90;;;;;;5011366;28;20195;-37
2022/05/05 11:44:39;;;;;;;14.43;12.93;;;17.60;99.90;;;;;;4978961;28;20184;-41
2022/05/05 11:47:14;;;;;;;13.07;11.88;;;17.70;99.90;;;;;;5007716;28;20206;-37
2022/05/05 11:49:46;;;;;;;13.45;12.18;;;17.80;99.90;;;;;;4975963;28;20218;-40
2022/05/05 11:52:23;;;;;;;13.18;11.82;;;17.80;99.90;;;;;;4998779;28;20262;-42
2022/05/05 11:54:51;;;;;;;13.45;12.13;;;17.60;99.90;;;;;;4987303;28;20704;-40
2022/05/05 11:57:39;;;;;;;13.80;12.25;;;17.60;99.90;;;;;;5003238;28;20179;-45
2022/05/05 12:02:53;;;;;;;13.32;12.00;;;17.60;99.90;;;;;;4991852;28;20213;-38
2022/05/05 12:05:24;;;;;;;16.35;14.68;;;17.70;99.90;;;;;;4976154;28;20183;-39
2022/05/05 12:07:52;;;;;;;12.27;11.10;;;17.70;99.90;;;;;;4992529;28;20188;-41
2022/05/05 12:10:19;;;;;;;12.48;11.27;;;17.60;99.90;;;;;;4976115;28;20180;-38
2022/05/05 12:12:50;;;;;;;11.43;10.27;;;17.80;99.90;;;;;;4992322;28;20223;-40
2022/05/05 12:15:18;;;;;;;11.85;10.65;;;17.90;99.90;;;;;;4992436;28;20250;-37
2022/05/05 12:17:58;;;;;;;14.00;12.65;;;18.00;99.90;;;;;;4976101;28;20164;-40
2022/05/05 12:20:24;;;;;;;13.57;12.30;;;18.10;99.90;;;;;;4975731;28;20184;-37
2022/05/05 12:22:59;;;;;;;14.73;13.23;;;18.00;99.90;;;;;;4979564;28;20199;-40
2022/05/05 12:25:26;;;;;;;11.85;10.68;;;17.60;99.90;;;;;;4997348;28;20175;-40
2022/05/05 12:28:01;;;;;;;10.85;9.73;;;17.50;99.90;;;;;;4987655;28;20179;-40
2022/05/05 12:30:31;;;;;;;10.73;8.65;;;17.50;99.90;;;;;;4969493;28;20187;-40
2022/05/05 12:32:57;;;;;;;8.00;7.30;;;17.50;99.90;;;;;;5001756;28;20195;-40
2022/05/05 12:35:31;;;;;;;10.23;9.10;;;17.50;99.90;;;;;;4968110;28;20215;-39
2022/05/05 12:38:01;;;;;;;13.75;9.75;;;17.50;99.90;;;;;;4983869;28;20184;-38
2022/05/05 12:40:28;;;;;;;10.30;9.35;;;17.20;99.90;;;;;;4984381;28;20171;-37
2022/05/05 12:43:06;;;;;;;10.85;9.75;;;17.10;99.90;;;;;;4985801;28;20544;-40
2022/05/05 12:45:34;;;;;;;12.25;11.10;;;17.30;99.90;;;;;;4984920;28;20241;-41
2022/05/05 12:48:02;;;;;;;13.82;12.45;;;17.50;99.90;;;;;;5001177;28;20179;-40
2022/05/05 12:50:49;;;;;;;14.63;12.93;;;17.50;99.90;;;;;;5000207;28;20195;-40
2022/05/05 13:01:43;;;;;;;12.38;11.10;;;18.20;99.90;;;;;;4999975;28;20253;-41
2022/05/05 13:04:13;;;;;;;11.93;9.60;;;18.30;99.90;;;;;;4999808;28;20222;-39
2022/05/05 13:06:40;;;;;;;11.73;10.52;;;18.20;99.90;;;;;;4985608;28;20190;-40
2022/05/05 13:09:09;;;;;;;11.38;9.90;;;18.30;99.90;;;;;;4968002;28;20230;-40
2022/05/05 13:11:40;;;;;;;12.07;10.98;;;18.20;99.90;;;;;;4982937;28;20199;-38
2022/05/05 13:14:06;;;;;;;12.48;11.18;;;18.00;99.90;;;;;;4984332;28;20249;-38
2022/05/05 13:16:33;;;;;;;13.10;11.73;;;17.50;99.90;;;;;;4984984;28;20180;-40
2022/05/05 13:19:01;;;;;;;13.35;10.98;;;17.50;99.90;;;;;;4979270;28;20172;-40
2022/05/05 13:21:29;;;;;;;11.57;10.38;;;17.40;99.90;;;;;;4977566;28;20199;-40
2022/05/05 13:23:57;;;;;;;11.18;10.07;;;17.40;99.90;;;;;;4984910;28;20253;-40
2022/05/05 13:26:23;;;;;;;11.23;10.10;;;17.50;99.90;;;;;;4996703;28;20204;-37
2022/05/05 13:28:49;;;;;;;9.80;8.80;;;17.40;99.90;;;;;;4980973;28;20191;-41
2022/05/05 13:31:14;;;;;;;11.30;9.98;;;17.30;99.90;;;;;;4978841;28;20207;-39
2022/05/05 13:33:41;;;;;;;11.13;10.02;;;17.40;99.90;;;;;;4985938;28;20265;-43
2022/05/05 13:36:07;;;;;;;11.02;9.90;;;17.20;99.90;;;;;;4985389;28;20180;-40